createdAt,value
2019-03-26T00:02:19.094Z,6.77
2019-03-26T00:09:06.835Z,7.00
2019-03-26T00:15:51.701Z,6.57
2019-03-26T00:22:36.716Z,5.87
2019-03-26T00:29:21.631Z,6.63
2019-03-26T00:36:06.491Z,6.27
2019-03-26T00:42:53.118Z,6.43
2019-03-26T00:49:37.978Z,6.87
2019-03-26T00:56:22.850Z,6.27
2019-03-26T01:03:09.117Z,6.33
2019-03-26T01:09:55.180Z,7.13
2019-03-26T01:16:40.181Z,8.20
2019-03-26T01:23:25.150Z,8.97
2019-03-26T01:30:11.545Z,9.37
2019-03-26T01:36:56.830Z,10.07
2019-03-26T01:43:41.763Z,9.20
2019-03-26T01:50:26.694Z,9.07
2019-03-26T01:57:11.563Z,10.53
2019-03-26T02:03:56.423Z,9.67
2019-03-26T02:10:41.293Z,10.60
2019-03-26T02:17:26.461Z,10.93
2019-03-26T02:24:11.530Z,10.93
2019-03-26T02:30:56.739Z,12.10
2019-03-26T02:37:42.068Z,12.87
2019-03-26T02:44:27.029Z,11.63
2019-03-26T02:51:11.971Z,11.67
2019-03-26T02:57:56.824Z,11.43
2019-03-26T03:04:41.681Z,12.30
2019-03-26T03:11:26.539Z,11.23
2019-03-26T03:18:12.163Z,11.33
2019-03-26T03:24:57.426Z,10.87
2019-03-26T03:31:42.421Z,10.60
2019-03-26T03:38:27.271Z,11.47
2019-03-26T03:45:14.336Z,11.17
2019-03-26T03:52:00.916Z,10.07
2019-03-26T03:58:47.603Z,11.37
2019-03-26T04:05:32.568Z,10.40
2019-03-26T04:12:17.435Z,10.43
2019-03-26T04:19:02.288Z,9.57
2019-03-26T04:25:47.336Z,9.97
2019-03-26T04:32:32.407Z,10.37
2019-03-26T04:39:17.360Z,10.07
2019-03-26T04:46:02.568Z,10.40
2019-03-26T04:52:47.443Z,11.45
2019-03-26T04:59:32.302Z,12.83
2019-03-26T05:06:17.247Z,11.57
2019-03-26T05:13:02.183Z,11.10
2019-03-26T05:19:47.039Z,12.60
2019-03-26T05:26:31.903Z,12.13
2019-03-26T05:33:16.780Z,12.73
2019-03-26T05:40:01.676Z,12.07
2019-03-26T05:46:46.771Z,12.13
2019-03-26T05:53:34.495Z,11.00
2019-03-26T06:00:21.083Z,11.00
2019-03-26T06:07:05.949Z,10.13
2019-03-26T06:13:50.806Z,11.00
2019-03-26T06:20:35.683Z,10.60
2019-03-26T06:27:20.619Z,11.00
2019-03-26T06:34:05.482Z,10.00
2019-03-26T06:40:50.712Z,11.90
2019-03-26T06:47:35.576Z,10.53
2019-03-26T06:54:20.444Z,11.60
2019-03-26T07:01:05.623Z,10.50
2019-03-26T07:07:50.514Z,12.70
2019-03-26T07:14:35.548Z,12.80
2019-03-26T07:21:20.930Z,11.83
2019-03-26T07:28:05.915Z,11.73
2019-03-26T07:34:50.784Z,12.93
2019-03-26T07:41:35.648Z,11.90
2019-03-26T07:48:20.519Z,12.63
2019-03-26T07:55:07.973Z,11.90
2019-03-26T08:01:53.810Z,13.13
2019-03-26T08:08:40.727Z,12.37
2019-03-26T08:15:25.491Z,10.97
2019-03-26T08:22:10.359Z,10.23
2019-03-26T08:28:55.223Z,10.17
2019-03-26T08:35:40.085Z,9.20
2019-03-26T08:42:24.939Z,9.63
2019-03-26T08:49:09.921Z,8.87
2019-03-26T08:55:54.855Z,8.63
2019-03-26T09:02:39.782Z,7.93
2019-03-26T09:09:24.642Z,8.30
2019-03-26T09:16:09.503Z,7.50
2019-03-26T09:22:54.443Z,7.50
2019-03-26T09:29:39.307Z,7.80
2019-03-26T09:36:25.144Z,7.78
2019-03-26T09:43:10.082Z,7.78
2019-03-26T09:49:54.934Z,6.72
2019-03-26T09:56:39.843Z,7.60
2019-03-26T10:03:24.724Z,7.43
2019-03-26T10:10:11.878Z,7.73
2019-03-26T10:16:56.766Z,8.30
2019-03-26T10:23:41.691Z,9.13
2019-03-26T10:30:38.911Z,8.40
2019-03-26T10:37:23.779Z,8.17
2019-03-26T10:44:08.719Z,8.27
2019-03-26T10:50:53.582Z,8.07
2019-03-26T10:57:38.708Z,8.13
2019-03-26T11:04:24.095Z,5.37
2019-03-26T11:11:09.090Z,6.73
2019-03-26T11:17:54.016Z,6.83
2019-03-26T11:24:38.880Z,6.40
2019-03-26T11:31:23.738Z,6.73
2019-03-26T11:38:08.669Z,5.20
2019-03-26T11:44:53.598Z,4.63
2019-03-26T11:51:38.459Z,4.37
2019-03-26T11:58:30.306Z,4.60
2019-03-26T12:05:10.300Z,4.80
2019-03-26T12:11:55.222Z,4.67
2019-03-26T12:18:40.096Z,3.23
2019-03-26T12:25:25.031Z,3.33
2019-03-26T12:32:09.963Z,3.60
2019-03-26T12:38:55.775Z,4.17
2019-03-26T12:45:40.849Z,3.67
2019-03-26T12:52:25.855Z,3.90
2019-03-26T12:59:10.729Z,4.10
2019-03-26T13:05:55.771Z,4.13
2019-03-26T13:12:40.811Z,3.83
2019-03-26T13:19:25.671Z,3.72
2019-03-26T13:26:10.737Z,3.20
2019-03-26T13:32:55.891Z,3.77
2019-03-26T13:39:41.185Z,3.40
2019-03-26T13:46:26.044Z,3.97
2019-03-26T13:53:11.046Z,3.37
2019-03-26T13:59:56.455Z,3.83
2019-03-26T14:06:41.327Z,4.03
2019-03-26T14:13:26.276Z,3.70
2019-03-26T14:20:12.046Z,4.63
2019-03-26T14:26:57.104Z,4.43
2019-03-26T14:33:42.047Z,4.57
2019-03-26T14:40:27.015Z,4.90
2019-03-26T14:47:12.052Z,4.90
2019-03-26T14:53:56.910Z,6.00
2019-03-26T15:00:41.908Z,5.47
2019-03-26T15:07:27.214Z,4.83
2019-03-26T15:14:12.153Z,3.70
2019-03-26T15:20:57.195Z,4.57
2019-03-26T15:27:42.187Z,6.10
2019-03-26T15:34:36.016Z,5.60
2019-03-26T15:41:21.424Z,5.90
2019-03-26T15:48:00.543Z,5.17
2019-03-26T15:54:45.603Z,4.80
2019-03-26T16:01:31.631Z,6.47
2019-03-26T16:08:16.606Z,7.17
2019-03-26T16:15:01.770Z,9.80
2019-03-26T16:21:48.016Z,10.10
2019-03-26T16:28:33.217Z,7.53
2019-03-26T16:35:18.103Z,10.23
2019-03-26T16:42:03.364Z,10.13
2019-03-26T16:48:48.989Z,7.00
2019-03-26T16:55:34.357Z,8.17
2019-03-26T17:02:20.127Z,10.50
2019-03-26T17:09:07.565Z,8.67
2019-03-26T17:15:52.599Z,9.23
2019-03-26T17:22:37.461Z,8.90
2019-03-26T17:29:22.432Z,8.43
2019-03-26T17:36:07.476Z,7.90
2019-03-26T17:42:53.764Z,6.45
2019-03-26T17:49:38.770Z,6.77
2019-03-26T17:56:24.327Z,5.90
2019-03-26T18:03:09.323Z,5.70
2019-03-26T18:09:54.246Z,7.27
2019-03-26T18:16:40.248Z,6.53
2019-03-26T18:23:25.169Z,7.20
2019-03-26T18:30:10.367Z,7.30
2019-03-26T18:36:55.361Z,7.47
2019-03-26T18:43:40.451Z,7.57
2019-03-26T18:50:25.353Z,6.80
2019-03-26T18:57:10.302Z,6.90
2019-03-26T19:03:55.218Z,6.50
2019-03-26T19:10:40.228Z,7.00
2019-03-26T19:17:25.311Z,7.33
2019-03-26T19:24:10.493Z,7.60
2019-03-26T19:30:55.428Z,7.90
2019-03-26T19:37:40.703Z,7.60
2019-03-26T19:44:25.729Z,8.33
2019-03-26T19:51:10.651Z,8.03
2019-03-26T19:57:55.511Z,7.53
2019-03-26T20:04:40.376Z,9.50
2019-03-26T20:11:25.538Z,9.00
2019-03-26T20:18:10.476Z,8.60
2019-03-26T20:24:55.348Z,9.10
2019-03-26T20:31:40.518Z,9.93
2019-03-26T20:38:25.375Z,10.37
2019-03-26T20:45:14.155Z,9.13
2019-03-26T20:51:59.426Z,10.03
2019-03-26T20:58:45.116Z,8.87
2019-03-26T21:05:30.115Z,8.93
2019-03-26T21:12:15.095Z,8.70
2019-03-26T21:18:59.960Z,8.57
2019-03-26T21:25:45.708Z,10.13
2019-03-26T21:32:30.806Z,8.60
2019-03-26T21:39:15.672Z,9.60
2019-03-26T21:46:00.593Z,9.63
2019-03-26T21:52:45.598Z,8.90
2019-03-26T21:59:30.507Z,10.03
2019-03-26T22:06:15.479Z,9.30
2019-03-26T22:13:00.983Z,8.93
2019-03-26T22:19:45.898Z,9.97
2019-03-26T22:26:30.766Z,9.60
2019-03-26T22:33:15.621Z,9.13
2019-03-26T22:40:00.479Z,9.20
2019-03-26T22:46:45.407Z,9.80
2019-03-26T22:53:31.588Z,9.43
2019-03-26T23:00:19.832Z,9.53
2019-03-26T23:07:06.431Z,11.08
2019-03-26T23:13:52.082Z,10.20
2019-03-26T23:20:37.171Z,9.63
2019-03-26T23:27:22.026Z,10.00
2019-03-26T23:34:06.977Z,9.10
2019-03-26T23:40:51.907Z,9.13
2019-03-26T23:47:36.913Z,8.80
2019-03-26T23:54:21.838Z,9.10
